createdAt,value
2017-11-09T00:01:13.100Z,60.67
2017-11-09T00:03:46.550Z,59.90
2017-11-09T00:06:19.915Z,58.35
2017-11-09T00:08:47.482Z,60.72
2017-11-09T00:11:15.025Z,52.45
2017-11-09T00:13:43.312Z,58.13
2017-11-09T00:16:10.844Z,57.70
2017-11-09T00:18:38.380Z,63.92
2017-11-09T00:21:05.897Z,60.00
2017-11-09T00:23:33.405Z,58.15
2017-11-09T00:26:00.912Z,61.45
2017-11-09T00:28:28.447Z,65.55
2017-11-09T00:30:56.144Z,57.72
2017-11-09T00:33:23.669Z,61.03
2017-11-09T00:35:51.979Z,59.78
2017-11-09T00:38:19.498Z,67.28
2017-11-09T00:40:47.057Z,63.22
2017-11-09T00:43:14.580Z,73.05
2017-11-09T00:45:42.146Z,56.58
2017-11-09T00:48:09.649Z,57.62
2017-11-09T00:50:37.935Z,55.20
2017-11-09T00:53:06.216Z,55.17
2017-11-09T00:55:34.489Z,56.10
2017-11-09T00:58:02.869Z,56.67
2017-11-09T01:00:30.395Z,57.83
2017-11-09T01:02:57.893Z,65.60
2017-11-09T01:05:26.202Z,61.40
2017-11-09T01:07:54.709Z,57.78
2017-11-09T01:10:22.236Z,54.35
2017-11-09T01:12:49.762Z,59.20
2017-11-09T01:15:18.056Z,65.45
2017-11-09T01:17:45.571Z,62.92
2017-11-09T01:20:13.085Z,69.50
2017-11-09T01:22:40.610Z,66.97
2017-11-09T01:25:08.892Z,65.35
2017-11-09T01:27:37.161Z,63.05
2017-11-09T01:30:05.440Z,67.50
2017-11-09T01:32:33.722Z,63.63
2017-11-09T01:35:01.993Z,66.47
2017-11-09T01:37:30.267Z,69.15
2017-11-09T01:39:58.579Z,67.40
2017-11-09T01:42:26.109Z,57.70
2017-11-09T01:44:53.670Z,63.55
2017-11-09T01:47:21.942Z,62.88
2017-11-09T01:49:49.528Z,55.28
2017-11-09T01:52:17.031Z,63.97
2017-11-09T01:54:44.539Z,59.08
2017-11-09T01:57:12.830Z,59.63
2017-11-09T01:59:40.413Z,53.00
2017-11-09T02:02:07.944Z,61.45
2017-11-09T02:04:35.474Z,62.38
2017-11-09T02:07:03.007Z,61.60
2017-11-09T02:09:30.532Z,62.40
2017-11-09T02:11:58.049Z,61.42
2017-11-09T02:14:25.577Z,64.35
2017-11-09T02:16:53.080Z,60.45
2017-11-09T02:19:21.372Z,68.75
2017-11-09T02:21:48.919Z,55.92
2017-11-09T02:24:16.441Z,63.70
2017-11-09T02:26:44.060Z,57.17
2017-11-09T02:29:11.602Z,61.60
2017-11-09T02:31:39.896Z,68.28
2017-11-09T02:34:07.408Z,64.57
2017-11-09T02:36:34.968Z,58.20
2017-11-09T02:39:02.522Z,55.28
2017-11-09T02:41:30.097Z,58.67
2017-11-09T02:43:57.647Z,56.58
2017-11-09T03:03:45.032Z,59.65
2017-11-09T03:06:12.579Z,59.40
2017-11-09T03:08:40.103Z,63.60
2017-11-09T03:11:07.604Z,64.37
2017-11-09T03:13:35.918Z,66.15
2017-11-09T03:16:03.444Z,59.97
2017-11-09T03:18:30.972Z,58.95
2017-11-09T03:20:58.473Z,58.85
2017-11-09T03:23:25.986Z,56.65
2017-11-09T03:25:53.522Z,60.78
2017-11-09T03:28:21.012Z,63.60
2017-11-09T03:30:48.559Z,69.37
2017-11-09T03:33:16.088Z,59.10
2017-11-09T03:35:43.630Z,66.82
2017-11-09T03:38:11.140Z,59.60
2017-11-09T03:40:38.697Z,60.03
2017-11-09T03:43:06.222Z,60.33
2017-11-09T03:45:33.816Z,53.70
2017-11-09T03:48:01.342Z,66.35
2017-11-09T03:50:28.875Z,51.30
2017-11-09T03:52:56.403Z,64.85
2017-11-09T03:55:23.901Z,58.17
2017-11-09T03:57:51.412Z,67.03
2017-11-09T04:00:18.916Z,60.92
2017-11-09T04:02:46.428Z,60.03
2017-11-09T04:05:13.961Z,60.75
2017-11-09T04:07:41.539Z,63.55
2017-11-09T04:10:09.070Z,56.92
2017-11-09T04:12:36.603Z,62.25
2017-11-09T04:15:04.144Z,61.63
2017-11-09T04:17:32.449Z,57.45
2017-11-09T04:20:00.728Z,56.37
2017-11-09T04:22:28.294Z,61.63
2017-11-09T04:24:55.815Z,69.43
2017-11-09T04:27:23.348Z,65.05
2017-11-09T04:29:50.876Z,58.10
2017-11-09T04:32:18.398Z,57.75
2017-11-09T04:34:45.893Z,53.25
2017-11-09T04:37:13.429Z,59.58
2017-11-09T04:39:40.977Z,57.35
2017-11-09T04:42:08.490Z,61.97
2017-11-09T04:44:36.032Z,58.15
2017-11-09T04:47:03.548Z,68.68
2017-11-09T04:49:31.073Z,57.88
2017-11-09T04:51:58.725Z,53.50
2017-11-09T04:54:26.247Z,64.62
2017-11-09T04:56:53.769Z,69.07
2017-11-09T04:59:21.284Z,60.12
2017-11-09T05:01:48.804Z,60.92
2017-11-09T05:04:16.367Z,59.45
2017-11-09T05:06:43.870Z,53.67
2017-11-09T05:09:11.496Z,58.00
2017-11-09T05:11:39.024Z,64.55
2017-11-09T05:14:06.575Z,63.20
2017-11-09T05:16:34.116Z,59.40
2017-11-09T05:19:01.716Z,55.80
2017-11-09T05:21:29.227Z,70.07
2017-11-09T05:23:56.766Z,56.67
2017-11-09T05:26:24.275Z,58.70
2017-11-09T05:28:51.797Z,55.28
2017-11-09T05:31:20.073Z,59.63
2017-11-09T05:33:48.361Z,62.13
2017-11-09T05:36:15.908Z,56.05
2017-11-09T05:38:43.415Z,54.20
2017-11-09T05:41:10.945Z,53.80
2017-11-09T05:43:38.463Z,51.97
2017-11-09T05:46:06.009Z,59.63
2017-11-09T05:48:33.542Z,56.00
2017-11-09T05:51:01.051Z,58.28
2017-11-09T05:53:28.579Z,63.65
2017-11-09T05:55:56.293Z,55.88
2017-11-09T05:58:23.805Z,60.33
2017-11-09T06:00:51.326Z,61.90
2017-11-09T06:03:18.852Z,56.22
2017-11-09T06:05:47.176Z,53.58
2017-11-09T06:08:14.687Z,54.58
2017-11-09T06:10:42.411Z,65.75
2017-11-09T06:13:09.964Z,68.82
2017-11-09T06:15:37.496Z,56.10
2017-11-09T06:18:05.009Z,61.22
2017-11-09T06:20:32.581Z,59.38
2017-11-09T06:23:00.090Z,57.75
2017-11-09T06:25:27.624Z,52.50
2017-11-09T06:27:55.913Z,58.45
2017-11-09T06:30:23.409Z,57.85
2017-11-09T06:32:50.972Z,63.97
2017-11-09T06:35:18.487Z,57.13
2017-11-09T06:37:46.012Z,56.10
2017-11-09T06:40:13.538Z,60.25
2017-11-09T06:42:41.099Z,57.20
2017-11-09T06:45:08.626Z,61.65
2017-11-09T06:47:36.158Z,57.08
2017-11-09T06:50:04.473Z,67.35
2017-11-09T06:52:32.033Z,67.87
2017-11-09T06:54:59.574Z,64.70
2017-11-09T06:57:27.112Z,56.53
2017-11-09T06:59:54.691Z,56.13
2017-11-09T07:02:22.958Z,63.47
2017-11-09T07:04:51.244Z,54.65
2017-11-09T07:07:19.551Z,57.80
2017-11-09T07:09:47.132Z,54.55
2017-11-09T07:12:14.835Z,53.60
2017-11-09T07:14:43.152Z,58.20
2017-11-09T07:17:10.709Z,59.80
2017-11-09T07:19:38.465Z,60.12
2017-11-09T07:22:06.079Z,54.95
2017-11-09T07:24:34.503Z,59.38
2017-11-09T07:27:02.074Z,61.92
2017-11-09T07:29:29.616Z,58.47
2017-11-09T07:31:57.187Z,53.35
2017-11-09T07:34:24.704Z,57.22
2017-11-09T07:36:52.311Z,65.40
2017-11-09T07:39:19.891Z,67.50
2017-11-09T07:41:47.431Z,59.90
2017-11-09T07:44:15.065Z,65.70
2017-11-09T07:46:43.364Z,71.43
2017-11-09T07:49:10.873Z,64.07
2017-11-09T07:51:38.373Z,63.20
2017-11-09T07:54:06.806Z,65.05
2017-11-09T07:56:34.328Z,57.67
2017-11-09T07:59:01.918Z,68.72
2017-11-09T08:01:29.452Z,60.97
2017-11-09T08:03:56.959Z,61.65
2017-11-09T08:06:24.700Z,62.38
2017-11-09T08:08:52.233Z,60.12
2017-11-09T08:11:19.770Z,57.00
2017-11-09T08:13:47.388Z,69.37
2017-11-09T08:16:14.999Z,62.88
2017-11-09T08:18:42.785Z,65.50
2017-11-09T08:21:10.331Z,66.77
2017-11-09T08:23:37.853Z,63.78
2017-11-09T08:26:07.070Z,66.28
2017-11-09T08:28:36.612Z,62.70
2017-11-09T08:31:04.948Z,66.18
2017-11-09T08:33:35.649Z,63.30
2017-11-09T08:36:03.164Z,45.88
2017-11-09T08:38:30.689Z,60.08
2017-11-09T08:40:58.199Z,61.70
2017-11-09T08:43:25.728Z,50.88
2017-11-09T08:45:54.009Z,64.82
2017-11-09T08:48:22.313Z,63.58
2017-11-09T08:50:49.873Z,69.28
2017-11-09T08:53:17.701Z,64.37
2017-11-09T08:55:45.222Z,62.30
2017-11-09T08:58:12.780Z,57.97
2017-11-09T09:00:40.294Z,56.60
2017-11-09T09:03:07.833Z,58.80
2017-11-09T09:05:35.526Z,65.65
2017-11-09T09:08:03.048Z,55.30
2017-11-09T09:10:30.610Z,64.80
2017-11-09T09:12:58.173Z,62.53
2017-11-09T09:15:25.711Z,60.90
2017-11-09T09:17:53.232Z,59.67
2017-11-09T09:20:21.684Z,59.58
2017-11-09T09:22:49.983Z,67.65
2017-11-09T09:25:22.994Z,61.08
2017-11-09T09:28:07.208Z,70.50
2017-11-09T09:30:35.494Z,62.42
2017-11-09T09:33:10.018Z,64.28
2017-11-09T09:35:44.192Z,65.22
2017-11-09T09:38:27.349Z,54.45
2017-11-09T09:40:55.673Z,61.90
2017-11-09T09:43:23.265Z,57.90
2017-11-09T09:45:50.783Z,58.08
2017-11-09T09:48:18.412Z,48.08
2017-11-09T09:50:46.002Z,62.88
2017-11-09T09:53:13.518Z,49.47
2017-11-09T09:55:41.834Z,52.00
2017-11-09T09:58:09.377Z,46.28
2017-11-09T10:00:36.912Z,58.75
2017-11-09T10:03:05.209Z,68.00
2017-11-09T10:05:33.534Z,58.10
2017-11-09T10:08:01.181Z,60.55
2017-11-09T10:10:28.712Z,64.50
2017-11-09T10:12:57.000Z,62.55
2017-11-09T10:15:24.534Z,55.72
2017-11-09T10:17:52.807Z,56.37
2017-11-09T10:20:20.399Z,56.40
2017-11-09T10:22:48.020Z,58.33
2017-11-09T10:25:15.546Z,66.85
2017-11-09T10:27:43.117Z,61.70
2017-11-09T10:30:10.725Z,55.58
2017-11-09T10:32:39.011Z,57.55
2017-11-09T10:35:06.533Z,57.60
2017-11-09T10:37:34.655Z,62.10
2017-11-09T10:40:02.181Z,67.37
2017-11-09T10:42:30.459Z,58.53
2017-11-09T10:44:58.742Z,59.20
2017-11-09T10:47:27.072Z,32.13
2017-11-09T10:49:54.591Z,60.42
2017-11-09T10:52:22.131Z,60.65
2017-11-09T10:54:50.429Z,61.70
2017-11-09T10:57:17.961Z,69.18
2017-11-09T10:59:45.530Z,54.85
2017-11-09T11:02:13.053Z,62.97
2017-11-09T11:04:40.581Z,56.40
2017-11-09T11:07:08.133Z,62.95
2017-11-09T11:09:35.666Z,51.10
2017-11-09T11:12:03.180Z,60.72
2017-11-09T11:14:30.702Z,59.55
2017-11-09T11:16:58.313Z,52.78
2017-11-09T11:19:26.680Z,44.25
2017-11-09T11:21:54.222Z,63.17
2017-11-09T11:24:21.743Z,57.97
2017-11-09T11:26:50.042Z,67.12
2017-11-09T11:29:17.577Z,59.28
2017-11-09T11:31:45.114Z,55.58
2017-11-09T11:40:57.094Z,58.38
2017-11-09T11:43:24.638Z,58.47
2017-11-09T11:45:52.171Z,57.70
2017-11-09T11:48:19.687Z,63.40
2017-11-09T11:50:47.982Z,63.55
2017-11-09T11:53:15.487Z,65.30
2017-11-09T11:55:43.089Z,61.75
2017-11-09T11:58:10.662Z,58.65
2017-11-09T12:00:38.180Z,61.33
2017-11-09T12:03:05.744Z,64.50
2017-11-09T12:05:33.263Z,61.35
2017-11-09T12:08:00.790Z,54.55
2017-11-09T12:10:28.310Z,61.80
2017-11-09T12:12:55.821Z,59.58
2017-11-09T12:15:23.333Z,68.85
2017-11-09T12:17:51.676Z,56.03
2017-11-09T12:20:19.202Z,57.97
2017-11-09T12:22:46.760Z,64.93
2017-11-09T12:25:14.280Z,49.05
2017-11-09T12:27:42.720Z,62.45
2017-11-09T12:30:10.240Z,60.22
2017-11-09T12:32:39.258Z,62.22
2017-11-09T12:35:06.778Z,63.00
2017-11-09T12:37:34.325Z,59.67
2017-11-09T12:40:01.836Z,58.80
2017-11-09T12:42:29.380Z,59.75
2017-11-09T12:44:57.075Z,58.10
2017-11-09T12:47:24.634Z,56.28
2017-11-09T12:49:52.165Z,60.03
2017-11-09T12:52:19.858Z,56.63
2017-11-09T12:54:47.486Z,62.33
2017-11-09T12:57:15.003Z,56.03
2017-11-09T12:59:42.539Z,59.85
2017-11-09T13:02:10.061Z,60.05
2017-11-09T13:04:37.617Z,62.55
2017-11-09T13:07:06.020Z,64.72
2017-11-09T13:09:33.554Z,55.22
2017-11-09T13:12:01.104Z,60.00
2017-11-09T13:14:28.670Z,49.80
2017-11-09T13:16:56.206Z,59.33
2017-11-09T13:19:26.697Z,58.10
2017-11-09T13:21:54.277Z,54.70
2017-11-09T13:24:21.822Z,62.40
2017-11-09T13:26:49.353Z,74.00
2017-11-09T13:29:17.635Z,61.97
2017-11-09T13:31:45.182Z,60.05
2017-11-09T13:34:13.483Z,65.03
2017-11-09T13:36:41.012Z,59.15
2017-11-09T13:39:08.543Z,61.13
2017-11-09T13:41:36.072Z,71.53
2017-11-09T13:44:03.594Z,63.28
2017-11-09T13:46:31.916Z,66.32
2017-11-09T13:48:59.606Z,71.10
2017-11-09T13:51:27.161Z,55.95
2017-11-09T13:53:54.708Z,66.78
2017-11-09T13:56:22.241Z,62.13
2017-11-09T13:58:49.777Z,61.58
2017-11-09T14:01:17.335Z,56.65
2017-11-09T14:03:45.604Z,59.42
2017-11-09T14:06:13.308Z,58.50
2017-11-09T14:08:40.837Z,67.20
2017-11-09T14:11:09.181Z,74.57
2017-11-09T14:13:36.700Z,64.82
2017-11-09T14:16:04.272Z,71.70
2017-11-09T14:18:31.824Z,69.30
2017-11-09T14:20:59.356Z,72.03
2017-11-09T14:23:27.713Z,67.72
2017-11-09T14:25:55.207Z,68.82
2017-11-09T14:28:22.752Z,67.18
2017-11-09T14:30:51.040Z,66.53
2017-11-09T14:33:18.581Z,73.22
2017-11-09T14:35:46.879Z,71.45
2017-11-09T14:38:16.378Z,74.62
2017-11-09T14:40:43.943Z,65.85
2017-11-09T14:43:11.486Z,64.40
2017-11-09T14:45:39.823Z,70.15
2017-11-09T14:48:07.380Z,79.90
2017-11-09T14:50:35.068Z,63.00
2017-11-09T14:53:02.613Z,72.28
2017-11-09T14:55:30.127Z,71.72
2017-11-09T14:57:57.775Z,60.70
2017-11-09T15:00:25.311Z,62.20
2017-11-09T15:02:52.846Z,69.28
2017-11-09T15:05:20.597Z,65.05
2017-11-09T15:07:48.171Z,66.57
2017-11-09T15:10:15.692Z,67.87
2017-11-09T15:12:43.226Z,65.97
2017-11-09T15:15:10.775Z,75.18
2017-11-09T15:17:38.321Z,64.53
2017-11-09T15:20:05.828Z,68.12
2017-11-09T15:22:34.134Z,66.25
2017-11-09T15:25:02.030Z,67.50
2017-11-09T15:27:29.783Z,69.93
2017-11-09T15:29:57.435Z,72.57
2017-11-09T15:32:25.104Z,78.85
2017-11-09T15:34:52.679Z,64.80
2017-11-09T15:37:20.206Z,68.00
2017-11-09T15:39:47.717Z,65.37
2017-11-09T15:42:16.076Z,71.57
2017-11-09T15:44:43.603Z,68.30
2017-11-09T15:47:11.311Z,80.20
2017-11-09T15:49:38.852Z,73.57
2017-11-09T15:52:06.469Z,79.57
2017-11-09T15:54:35.027Z,72.45
2017-11-09T15:57:02.582Z,80.07
2017-11-09T15:59:30.144Z,73.40
2017-11-09T16:01:57.701Z,74.87
2017-11-09T16:04:25.239Z,75.87
2017-11-09T16:06:53.583Z,75.15
2017-11-09T16:09:21.097Z,78.25
2017-11-09T16:11:48.631Z,74.90
2017-11-09T16:14:16.187Z,87.85
2017-11-09T16:16:43.854Z,86.68
2017-11-09T16:19:15.332Z,73.07
2017-11-09T16:21:42.871Z,90.97
2017-11-09T16:24:10.400Z,86.35
2017-11-09T16:26:38.238Z,95.10
2017-11-09T16:29:07.668Z,74.22
2017-11-09T16:31:35.184Z,92.80
2017-11-09T16:34:02.810Z,101.18
2017-11-09T16:36:36.233Z,86.50
2017-11-09T16:39:03.780Z,88.53
2017-11-09T16:41:31.301Z,96.37
2017-11-09T16:43:58.840Z,100.55
2017-11-09T16:46:27.180Z,79.30
2017-11-09T16:48:54.704Z,93.60
2017-11-09T16:51:22.221Z,75.82
2017-11-09T16:53:49.723Z,89.60
2017-11-09T16:56:23.692Z,81.85
2017-11-09T16:58:52.009Z,78.07
2017-11-09T17:01:19.597Z,78.30
2017-11-09T17:03:48.282Z,73.95
2017-11-09T17:06:15.802Z,80.72
2017-11-09T17:08:43.571Z,77.05
2017-11-09T17:11:11.094Z,85.40
2017-11-09T17:13:38.613Z,87.95
2017-11-09T17:16:06.185Z,90.40
2017-11-09T17:18:33.749Z,78.43
2017-11-09T17:21:01.507Z,81.18
2017-11-09T17:23:29.056Z,84.90
2017-11-09T17:25:56.773Z,74.65
2017-11-09T17:28:24.317Z,79.55
2017-11-09T17:30:51.954Z,89.93
2017-11-09T17:33:19.501Z,84.40
2017-11-09T17:35:47.065Z,85.20
2017-11-09T17:38:15.403Z,80.50
2017-11-09T17:40:44.213Z,83.82
2017-11-09T17:43:11.857Z,84.82
2017-11-09T17:45:39.397Z,85.05
2017-11-09T17:48:06.945Z,78.43
2017-11-09T17:50:34.646Z,76.35
2017-11-09T17:53:02.337Z,84.72
2017-11-09T17:55:29.882Z,84.57
2017-11-09T17:57:57.443Z,80.07
2017-11-09T18:00:25.063Z,77.80
2017-11-09T18:02:53.463Z,90.32
2017-11-09T18:05:21.933Z,75.15
2017-11-09T18:07:51.216Z,76.75
2017-11-09T18:10:19.920Z,88.50
2017-11-09T18:12:48.608Z,90.10
2017-11-09T18:15:16.134Z,89.10
2017-11-09T18:17:44.129Z,75.05
2017-11-09T18:20:13.969Z,41.22
2017-11-09T18:22:45.093Z,79.12
2017-11-09T18:25:13.859Z,93.00
2017-11-09T18:27:43.125Z,85.07
2017-11-09T18:30:13.570Z,89.22
2017-11-09T18:32:42.541Z,84.47
2017-11-09T18:35:10.426Z,70.25
2017-11-09T18:37:38.594Z,95.45
2017-11-09T18:40:06.271Z,88.72
2017-11-09T18:42:34.278Z,85.60
2017-11-09T18:45:02.922Z,89.62
2017-11-09T18:47:32.023Z,100.82
2017-11-09T18:49:59.892Z,88.55
2017-11-09T18:52:27.530Z,91.12
2017-11-09T18:54:55.119Z,89.68
2017-11-09T18:57:22.840Z,75.82
2017-11-09T18:59:50.440Z,103.65
2017-11-09T19:02:17.979Z,83.85
2017-11-09T19:04:45.563Z,106.12
2017-11-09T19:07:13.283Z,89.60
2017-11-09T19:09:41.082Z,90.28
2017-11-09T19:12:08.962Z,91.53
2017-11-09T19:14:36.612Z,98.18
2017-11-09T19:17:04.574Z,96.90
2017-11-09T19:19:32.193Z,82.50
2017-11-09T19:22:01.500Z,93.62
2017-11-09T19:24:29.093Z,92.53
2017-11-09T19:26:56.697Z,94.07
2017-11-09T19:29:25.184Z,96.12
2017-11-09T19:31:52.711Z,92.53
2017-11-09T19:34:20.401Z,92.82
2017-11-09T19:36:48.200Z,85.12
2017-11-09T19:39:15.803Z,94.72
2017-11-09T19:41:44.442Z,88.10
2017-11-09T19:44:12.321Z,64.78
2017-11-09T19:46:39.916Z,103.38
2017-11-09T19:49:08.953Z,91.87
2017-11-09T19:51:37.349Z,76.57
2017-11-09T19:54:05.197Z,95.97
2017-11-09T19:56:33.137Z,104.45
2017-11-09T19:59:00.823Z,110.22
2017-11-09T20:01:29.185Z,96.10
2017-11-09T20:03:56.776Z,105.12
2017-11-09T20:06:24.414Z,98.85
2017-11-09T20:08:53.293Z,87.30
2017-11-09T20:11:21.362Z,95.12
2017-11-09T20:13:49.133Z,88.10
2017-11-09T20:16:17.117Z,80.05
2017-11-09T20:18:45.422Z,86.28
2017-11-09T20:21:13.992Z,101.03
2017-11-09T20:23:41.558Z,87.00
2017-11-09T20:43:29.571Z,89.13
2017-11-09T20:45:58.700Z,85.20
2017-11-09T20:48:26.288Z,94.93
2017-11-09T20:50:53.933Z,73.10
2017-11-09T20:53:22.615Z,77.78
2017-11-09T20:55:51.138Z,89.95
2017-11-09T20:58:19.925Z,89.97
2017-11-09T21:00:47.635Z,89.13
2017-11-09T21:03:15.261Z,79.65
2017-11-09T21:05:42.878Z,82.30
2017-11-09T21:08:11.380Z,95.15
2017-11-09T21:10:40.769Z,97.35
2017-11-09T21:13:09.235Z,92.18
2017-11-09T21:15:37.129Z,93.00
2017-11-09T21:18:05.380Z,86.03
2017-11-09T21:20:33.050Z,88.07
2017-11-09T21:23:01.620Z,81.65
2017-11-09T21:25:30.604Z,85.45
2017-11-09T21:27:58.262Z,89.65
2017-11-09T21:30:25.807Z,83.90
2017-11-09T21:32:53.942Z,82.53
2017-11-09T21:35:22.277Z,76.95
2017-11-09T21:37:49.800Z,82.95
2017-11-09T21:40:19.431Z,87.30
2017-11-09T21:42:48.074Z,71.45
2017-11-09T21:45:16.452Z,45.00
2017-11-09T21:47:47.028Z,86.87
2017-11-09T21:50:14.645Z,76.82
2017-11-09T21:52:43.038Z,75.95
2017-11-09T21:55:10.590Z,56.50
2017-11-09T21:57:39.848Z,92.28
2017-11-09T22:00:08.065Z,87.70
2017-11-09T22:02:36.395Z,70.10
2017-11-09T22:05:04.114Z,88.03
2017-11-09T22:07:31.678Z,76.75
2017-11-09T22:09:59.274Z,92.82
2017-11-09T22:12:27.094Z,85.60
2017-11-09T22:14:54.743Z,87.32
2017-11-09T22:17:22.430Z,78.55
2017-11-09T22:19:50.789Z,78.45
2017-11-09T22:22:19.089Z,93.60
2017-11-09T22:24:46.621Z,75.70
2017-11-09T22:27:14.880Z,75.93
2017-11-09T22:29:42.581Z,85.30
2017-11-09T22:32:11.877Z,91.93
2017-11-09T22:34:40.302Z,85.60
2017-11-09T22:37:07.996Z,57.55
2017-11-09T22:39:35.543Z,86.12
2017-11-09T22:42:03.223Z,75.30
2017-11-09T22:44:30.814Z,70.78
2017-11-09T22:46:58.378Z,76.45
2017-11-09T22:49:25.966Z,67.25
2017-11-09T22:51:53.510Z,65.82
2017-11-09T22:54:21.082Z,80.15
2017-11-09T22:56:48.612Z,72.95
2017-11-09T22:59:16.188Z,70.07
2017-11-09T23:01:43.790Z,79.07
2017-11-09T23:04:11.362Z,67.37
2017-11-09T23:06:38.887Z,73.20
2017-11-09T23:09:06.410Z,70.53
2017-11-09T23:11:34.094Z,67.18
2017-11-09T23:14:01.692Z,73.55
2017-11-09T23:16:29.300Z,72.57
2017-11-09T23:18:56.825Z,59.83
2017-11-09T23:21:24.349Z,62.00
2017-11-09T23:23:51.869Z,65.95
2017-11-09T23:26:21.086Z,64.87
2017-11-09T23:28:48.635Z,51.03
2017-11-09T23:31:16.162Z,61.65
2017-11-09T23:33:43.745Z,46.37
2017-11-09T23:36:11.369Z,61.10
2017-11-09T23:38:38.894Z,43.65
2017-11-09T23:41:06.393Z,60.22
2017-11-09T23:43:33.907Z,64.53
2017-11-09T23:46:05.278Z,55.03
2017-11-09T23:48:32.837Z,69.20
2017-11-09T23:51:00.526Z,53.90
2017-11-09T23:53:28.044Z,53.60
2017-11-09T23:55:55.746Z,49.17
2017-11-09T23:58:24.165Z,55.08
